Accueil
METAR-TAF:

METAR-TAF

Aéroports :

Aéroport international de la région de Murcie

Murcie, Corvera, Espagne

latitude: 37-48-13N, longitude: 1-07-27W, altitude: 193 m

Observation

Le bulletin a été fait il y a 27 minutes, à 12:30 UTC
Vent 10 kt de est/nord-est, variant entre nord/nord-est et est/sud-est
Température 18°C
Humidité 52%
Pression 1021 hPa
Visibilité 10 km ou plus
Quelques nuages à une hauteur de 6000 ft

METAR: LEMI 091230Z 07010KT 030V110 9999 FEW060 18/08 Q1021

Heure: 14:57 (12:57 UTC)


TAF: absent

Observations et prévisions météorologiques de plus de 4000 aéroports (messages METAR et TAF).

Les stations disponibles sont représentées par des disques jaunes et rouges sur la carte.

Passer la souris dessus pour voir le nom de la station.

Cliquer dessus pour voir les observations et prévisions météorologiques.

Pour changer de carte: cliquez sur les boutons verts avec une croix noire pour zoomer, sur le bouton vert avec un tiret pour effectuer un zoom arrière, ou sur les flèches vertes pour les cartes adjacentes.


METAR-TAF: